sensor_id;sensor_type;location;lat;lon;timestamp;P1;durP1;ratioP1;P2;durP2;ratioP2
37239;SDS011;23130;48.760;9.178;2023-05-29T00:01:12;8.13;;;4.68;;
37239;SDS011;23130;48.760;9.178;2023-05-29T00:03:38;8.35;;;4.18;;
37239;SDS011;23130;48.760;9.178;2023-05-29T00:06:04;7.78;;;4.68;;
37239;SDS011;23130;48.760;9.178;2023-05-29T00:08:31;7.80;;;4.88;;
37239;SDS011;23130;48.760;9.178;2023-05-29T00:10:56;6.65;;;3.92;;
37239;SDS011;23130;48.760;9.178;2023-05-29T00:13:23;8.60;;;4.80;;
37239;SDS011;23130;48.760;9.178;2023-05-29T00:15:48;8.85;;;4.45;;
37239;SDS011;23130;48.760;9.178;2023-05-29T00:18:14;10.23;;;4.47;;
37239;SDS011;23130;48.760;9.178;2023-05-29T00:20:40;7.07;;;4.00;;
37239;SDS011;23130;48.760;9.178;2023-05-29T00:23:05;7.47;;;4.28;;
37239;SDS011;23130;48.760;9.178;2023-05-29T00:25:31;8.13;;;4.22;;
37239;SDS011;23130;48.760;9.178;2023-05-29T00:27:57;7.88;;;3.90;;
37239;SDS011;23130;48.760;9.178;2023-05-29T00:30:23;7.82;;;4.25;;
37239;SDS011;23130;48.760;9.178;2023-05-29T00:32:50;8.07;;;4.35;;
37239;SDS011;23130;48.760;9.178;2023-05-29T00:35:17;11.25;;;4.72;;
37239;SDS011;23130;48.760;9.178;2023-05-29T00:37:42;8.27;;;4.15;;
37239;SDS011;23130;48.760;9.178;2023-05-29T00:40:08;7.47;;;4.15;;
37239;SDS011;23130;48.760;9.178;2023-05-29T00:42:34;8.75;;;4.72;;
37239;SDS011;23130;48.760;9.178;2023-05-29T00:45:00;8.52;;;4.93;;
37239;SDS011;23130;48.760;9.178;2023-05-29T00:47:26;7.40;;;4.25;;
37239;SDS011;23130;48.760;9.178;2023-05-29T00:49:51;9.80;;;5.38;;
37239;SDS011;23130;48.760;9.178;2023-05-29T00:52:18;10.50;;;5.22;;
37239;SDS011;23130;48.760;9.178;2023-05-29T00:54:45;12.05;;;5.28;;
37239;SDS011;23130;48.760;9.178;2023-05-29T00:57:12;7.90;;;4.53;;
37239;SDS011;23130;48.760;9.178;2023-05-29T00:59:39;10.55;;;5.25;;
37239;SDS011;23130;48.760;9.178;2023-05-29T01:02:05;11.30;;;5.00;;
37239;SDS011;23130;48.760;9.178;2023-05-29T01:04:31;6.90;;;3.70;;
37239;SDS011;23130;48.760;9.178;2023-05-29T01:06:59;7.45;;;4.22;;
37239;SDS011;23130;48.760;9.178;2023-05-29T01:09:25;7.60;;;4.47;;
37239;SDS011;23130;48.760;9.178;2023-05-29T01:11:58;6.03;;;4.40;;
37239;SDS011;23130;48.760;9.178;2023-05-29T01:21:00;6.15;;;4.05;;
37239;SDS011;23130;48.760;9.178;2023-05-29T01:29:06;6.97;;;3.95;;
37239;SDS011;23130;48.760;9.178;2023-05-29T01:31:32;7.72;;;4.15;;
37239;SDS011;23130;48.760;9.178;2023-05-29T01:34:01;9.27;;;4.45;;
37239;SDS011;23130;48.760;9.178;2023-05-29T01:36:26;9.43;;;4.57;;
37239;SDS011;23130;48.760;9.178;2023-05-29T01:38:53;7.60;;;4.07;;
37239;SDS011;23130;48.760;9.178;2023-05-29T01:41:21;8.13;;;3.95;;
37239;SDS011;23130;48.760;9.178;2023-05-29T01:43:51;11.13;;;4.75;;
37239;SDS011;23130;48.760;9.178;2023-05-29T01:46:18;9.85;;;5.03;;
37239;SDS011;23130;48.760;9.178;2023-05-29T01:48:44;9.40;;;3.95;;
37239;SDS011;23130;48.760;9.178;2023-05-29T01:51:11;6.40;;;3.60;;
37239;SDS011;23130;48.760;9.178;2023-05-29T01:53:37;8.05;;;4.32;;
37239;SDS011;23130;48.760;9.178;2023-05-29T01:56:06;8.25;;;4.13;;
37239;SDS011;23130;48.760;9.178;2023-05-29T01:58:33;12.30;;;5.60;;
37239;SDS011;23130;48.760;9.178;2023-05-29T02:01:01;12.00;;;4.40;;
37239;SDS011;23130;48.760;9.178;2023-05-29T02:03:28;7.85;;;5.07;;
37239;SDS011;23130;48.760;9.178;2023-05-29T02:05:55;8.55;;;4.35;;
37239;SDS011;23130;48.760;9.178;2023-05-29T02:08:24;7.78;;;4.93;;
37239;SDS011;23130;48.760;9.178;2023-05-29T02:10:50;9.52;;;4.57;;
37239;SDS011;23130;48.760;9.178;2023-05-29T02:13:16;7.20;;;4.35;;
37239;SDS011;23130;48.760;9.178;2023-05-29T02:15:42;7.50;;;3.70;;
37239;SDS011;23130;48.760;9.178;2023-05-29T02:18:09;7.07;;;4.22;;
37239;SDS011;23130;48.760;9.178;2023-05-29T02:20:38;7.70;;;4.10;;
37239;SDS011;23130;48.760;9.178;2023-05-29T02:23:03;9.45;;;4.75;;
37239;SDS011;23130;48.760;9.178;2023-05-29T02:25:29;6.63;;;3.72;;
37239;SDS011;23130;48.760;9.178;2023-05-29T02:27:55;8.98;;;4.60;;
37239;SDS011;23130;48.760;9.178;2023-05-29T02:30:21;9.25;;;4.45;;
37239;SDS011;23130;48.760;9.178;2023-05-29T02:32:47;7.18;;;3.97;;
37239;SDS011;23130;48.760;9.178;2023-05-29T02:35:16;8.40;;;3.75;;
37239;SDS011;23130;48.760;9.178;2023-05-29T02:37:45;9.10;;;3.78;;
37239;SDS011;23130;48.760;9.178;2023-05-29T02:40:11;8.57;;;4.10;;
37239;SDS011;23130;48.760;9.178;2023-05-29T02:42:36;8.07;;;4.35;;
37239;SDS011;23130;48.760;9.178;2023-05-29T02:45:02;8.73;;;4.15;;
37239;SDS011;23130;48.760;9.178;2023-05-29T02:47:28;8.15;;;4.05;;
37239;SDS011;23130;48.760;9.178;2023-05-29T02:49:54;9.65;;;4.32;;
37239;SDS011;23130;48.760;9.178;2023-05-29T02:52:19;8.00;;;4.45;;
37239;SDS011;23130;48.760;9.178;2023-05-29T02:54:45;6.55;;;4.03;;
37239;SDS011;23130;48.760;9.178;2023-05-29T02:57:11;7.88;;;4.55;;
37239;SDS011;23130;48.760;9.178;2023-05-29T02:59:36;8.27;;;4.40;;
37239;SDS011;23130;48.760;9.178;2023-05-29T03:02:02;8.77;;;3.83;;
37239;SDS011;23130;48.760;9.178;2023-05-29T03:04:28;8.43;;;4.25;;
37239;SDS011;23130;48.760;9.178;2023-05-29T03:06:53;8.00;;;4.15;;
37239;SDS011;23130;48.760;9.178;2023-05-29T03:09:19;7.82;;;4.05;;
37239;SDS011;23130;48.760;9.178;2023-05-29T03:11:45;9.25;;;4.38;;
37239;SDS011;23130;48.760;9.178;2023-05-29T03:14:12;9.07;;;4.50;;
37239;SDS011;23130;48.760;9.178;2023-05-29T03:16:38;9.02;;;4.20;;
37239;SDS011;23130;48.760;9.178;2023-05-29T03:19:05;10.68;;;4.40;;
37239;SDS011;23130;48.760;9.178;2023-05-29T03:21:32;6.15;;;3.50;;
37239;SDS011;23130;48.760;9.178;2023-05-29T03:23:58;7.88;;;3.90;;
37239;SDS011;23130;48.760;9.178;2023-05-29T03:26:24;9.63;;;4.63;;
37239;SDS011;23130;48.760;9.178;2023-05-29T03:28:50;13.30;;;4.78;;
37239;SDS011;23130;48.760;9.178;2023-05-29T03:31:16;7.00;;;3.83;;
37239;SDS011;23130;48.760;9.178;2023-05-29T03:33:41;7.63;;;4.13;;
37239;SDS011;23130;48.760;9.178;2023-05-29T03:36:07;9.75;;;3.85;;
37239;SDS011;23130;48.760;9.178;2023-05-29T03:38:33;8.23;;;3.38;;
37239;SDS011;23130;48.760;9.178;2023-05-29T03:40:58;10.50;;;3.92;;
37239;SDS011;23130;48.760;9.178;2023-05-29T03:43:24;8.32;;;4.00;;
37239;SDS011;23130;48.760;9.178;2023-05-29T03:45:50;8.25;;;4.57;;
37239;SDS011;23130;48.760;9.178;2023-05-29T03:48:15;7.28;;;3.75;;
37239;SDS011;23130;48.760;9.178;2023-05-29T03:50:41;9.82;;;4.72;;
37239;SDS011;23130;48.760;9.178;2023-05-29T03:53:06;6.43;;;3.95;;
37239;SDS011;23130;48.760;9.178;2023-05-29T03:55:32;8.52;;;4.28;;
37239;SDS011;23130;48.760;9.178;2023-05-29T03:57:58;8.02;;;4.10;;
37239;SDS011;23130;48.760;9.178;2023-05-29T04:00:23;9.13;;;4.18;;
37239;SDS011;23130;48.760;9.178;2023-05-29T04:02:49;8.98;;;4.10;;
37239;SDS011;23130;48.760;9.178;2023-05-29T04:05:14;6.35;;;3.97;;
37239;SDS011;23130;48.760;9.178;2023-05-29T04:07:41;8.35;;;4.10;;
37239;SDS011;23130;48.760;9.178;2023-05-29T04:10:07;6.97;;;4.20;;
37239;SDS011;23130;48.760;9.178;2023-05-29T04:12:33;6.65;;;3.55;;
37239;SDS011;23130;48.760;9.178;2023-05-29T04:14:59;9.98;;;5.13;;
37239;SDS011;23130;48.760;9.178;2023-05-29T04:17:25;10.93;;;5.35;;
37239;SDS011;23130;48.760;9.178;2023-05-29T04:19:52;9.88;;;4.35;;
37239;SDS011;23130;48.760;9.178;2023-05-29T04:22:17;8.82;;;3.83;;
37239;SDS011;23130;48.760;9.178;2023-05-29T04:24:44;9.85;;;3.95;;
37239;SDS011;23130;48.760;9.178;2023-05-29T04:27:11;7.88;;;3.58;;
37239;SDS011;23130;48.760;9.178;2023-05-29T04:29:41;7.50;;;3.97;;
37239;SDS011;23130;48.760;9.178;2023-05-29T04:32:07;7.53;;;4.05;;
37239;SDS011;23130;48.760;9.178;2023-05-29T04:34:36;6.72;;;3.00;;
37239;SDS011;23130;48.760;9.178;2023-05-29T04:37:04;5.95;;;3.97;;
37239;SDS011;23130;48.760;9.178;2023-05-29T04:39:30;5.97;;;4.40;;
37239;SDS011;23130;48.760;9.178;2023-05-29T04:41:56;8.02;;;3.30;;
37239;SDS011;23130;48.760;9.178;2023-05-29T04:44:23;7.00;;;4.05;;
37239;SDS011;23130;48.760;9.178;2023-05-29T04:46:52;6.55;;;3.70;;
37239;SDS011;23130;48.760;9.178;2023-05-29T04:49:18;6.55;;;3.72;;
37239;SDS011;23130;48.760;9.178;2023-05-29T04:51:45;6.15;;;3.95;;
37239;SDS011;23130;48.760;9.178;2023-05-29T04:54:11;7.63;;;4.38;;
37239;SDS011;23130;48.760;9.178;2023-05-29T04:56:37;7.13;;;4.03;;
37239;SDS011;23130;48.760;9.178;2023-05-29T04:59:05;7.45;;;3.95;;
37239;SDS011;23130;48.760;9.178;2023-05-29T05:01:31;7.60;;;3.83;;
37239;SDS011;23130;48.760;9.178;2023-05-29T05:03:59;8.85;;;4.07;;
37239;SDS011;23130;48.760;9.178;2023-05-29T05:06:25;6.60;;;4.10;;
37239;SDS011;23130;48.760;9.178;2023-05-29T05:08:51;6.28;;;4.13;;
37239;SDS011;23130;48.760;9.178;2023-05-29T05:11:18;5.20;;;4.15;;
37239;SDS011;23130;48.760;9.178;2023-05-29T05:13:43;8.05;;;4.10;;
37239;SDS011;23130;48.760;9.178;2023-05-29T05:16:09;6.90;;;4.53;;
37239;SDS011;23130;48.760;9.178;2023-05-29T05:18:35;7.45;;;4.50;;
37239;SDS011;23130;48.760;9.178;2023-05-29T05:21:01;7.38;;;4.30;;
37239;SDS011;23130;48.760;9.178;2023-05-29T05:23:31;5.90;;;4.35;;
37239;SDS011;23130;48.760;9.178;2023-05-29T05:25:57;8.13;;;4.40;;
37239;SDS011;23130;48.760;9.178;2023-05-29T05:28:23;8.68;;;4.88;;
37239;SDS011;23130;48.760;9.178;2023-05-29T05:30:49;7.03;;;4.22;;
37239;SDS011;23130;48.760;9.178;2023-05-29T05:33:14;5.30;;;3.90;;
37239;SDS011;23130;48.760;9.178;2023-05-29T05:35:40;8.20;;;4.38;;
37239;SDS011;23130;48.760;9.178;2023-05-29T05:38:05;10.15;;;4.55;;
37239;SDS011;23130;48.760;9.178;2023-05-29T05:40:31;7.50;;;4.75;;
37239;SDS011;23130;48.760;9.178;2023-05-29T05:42:57;5.97;;;4.32;;
37239;SDS011;23130;48.760;9.178;2023-05-29T05:45:23;6.63;;;4.05;;
37239;SDS011;23130;48.760;9.178;2023-05-29T05:47:48;8.38;;;4.80;;
37239;SDS011;23130;48.760;9.178;2023-05-29T05:50:14;9.55;;;4.22;;
37239;SDS011;23130;48.760;9.178;2023-05-29T05:52:40;7.72;;;5.13;;
37239;SDS011;23130;48.760;9.178;2023-05-29T05:55:05;8.30;;;4.53;;
37239;SDS011;23130;48.760;9.178;2023-05-29T05:57:32;8.13;;;4.53;;
37239;SDS011;23130;48.760;9.178;2023-05-29T05:59:59;6.88;;;4.20;;
37239;SDS011;23130;48.760;9.178;2023-05-29T06:02:25;5.15;;;3.97;;
37239;SDS011;23130;48.760;9.178;2023-05-29T06:04:51;5.65;;;4.03;;
37239;SDS011;23130;48.760;9.178;2023-05-29T06:07:19;7.13;;;4.68;;
37239;SDS011;23130;48.760;9.178;2023-05-29T06:09:45;5.20;;;3.85;;
37239;SDS011;23130;48.760;9.178;2023-05-29T06:12:11;7.03;;;5.55;;
37239;SDS011;23130;48.760;9.178;2023-05-29T06:14:37;6.95;;;4.80;;
37239;SDS011;23130;48.760;9.178;2023-05-29T06:17:02;5.82;;;4.53;;
37239;SDS011;23130;48.760;9.178;2023-05-29T06:19:28;7.47;;;4.32;;
37239;SDS011;23130;48.760;9.178;2023-05-29T06:21:54;10.20;;;5.10;;
37239;SDS011;23130;48.760;9.178;2023-05-29T06:24:19;9.27;;;4.53;;
37239;SDS011;23130;48.760;9.178;2023-05-29T06:26:45;6.97;;;4.40;;
37239;SDS011;23130;48.760;9.178;2023-05-29T06:29:11;9.57;;;5.00;;
37239;SDS011;23130;48.760;9.178;2023-05-29T06:31:36;9.27;;;5.43;;
37239;SDS011;23130;48.760;9.178;2023-05-29T06:34:02;7.57;;;4.68;;
37239;SDS011;23130;48.760;9.178;2023-05-29T06:36:27;7.60;;;4.72;;
37239;SDS011;23130;48.760;9.178;2023-05-29T06:38:53;7.53;;;4.57;;
37239;SDS011;23130;48.760;9.178;2023-05-29T06:41:18;6.72;;;4.38;;
37239;SDS011;23130;48.760;9.178;2023-05-29T06:43:44;6.38;;;4.20;;
37239;SDS011;23130;48.760;9.178;2023-05-29T06:46:10;6.88;;;4.20;;
37239;SDS011;23130;48.760;9.178;2023-05-29T06:48:36;10.30;;;4.38;;
37239;SDS011;23130;48.760;9.178;2023-05-29T06:51:02;8.57;;;4.85;;
37239;SDS011;23130;48.760;9.178;2023-05-29T06:53:40;6.70;;;4.28;;
37239;SDS011;23130;48.760;9.178;2023-05-29T06:56:06;6.30;;;4.68;;
37239;SDS011;23130;48.760;9.178;2023-05-29T06:58:32;8.45;;;5.07;;
37239;SDS011;23130;48.760;9.178;2023-05-29T07:00:58;7.05;;;4.47;;
37239;SDS011;23130;48.760;9.178;2023-05-29T07:03:26;6.75;;;4.95;;
37239;SDS011;23130;48.760;9.178;2023-05-29T07:05:53;6.90;;;4.45;;
37239;SDS011;23130;48.760;9.178;2023-05-29T07:08:18;8.52;;;4.63;;
37239;SDS011;23130;48.760;9.178;2023-05-29T07:10:47;8.90;;;4.65;;
37239;SDS011;23130;48.760;9.178;2023-05-29T07:13:15;6.53;;;4.20;;
37239;SDS011;23130;48.760;9.178;2023-05-29T07:15:41;6.97;;;4.10;;
37239;SDS011;23130;48.760;9.178;2023-05-29T07:18:07;7.72;;;5.03;;
37239;SDS011;23130;48.760;9.178;2023-05-29T07:20:32;5.32;;;4.13;;
37239;SDS011;23130;48.760;9.178;2023-05-29T07:22:58;8.57;;;5.00;;
37239;SDS011;23130;48.760;9.178;2023-05-29T07:25:23;8.80;;;4.88;;
37239;SDS011;23130;48.760;9.178;2023-05-29T07:27:49;6.13;;;4.47;;
37239;SDS011;23130;48.760;9.178;2023-05-29T07:30:15;7.78;;;4.43;;
37239;SDS011;23130;48.760;9.178;2023-05-29T07:32:41;6.80;;;4.53;;
37239;SDS011;23130;48.760;9.178;2023-05-29T07:35:07;7.93;;;5.22;;
37239;SDS011;23130;48.760;9.178;2023-05-29T07:37:33;5.72;;;4.38;;
37239;SDS011;23130;48.760;9.178;2023-05-29T07:39:59;7.40;;;5.20;;
37239;SDS011;23130;48.760;9.178;2023-05-29T07:42:25;6.50;;;4.53;;
37239;SDS011;23130;48.760;9.178;2023-05-29T07:44:51;6.78;;;4.57;;
37239;SDS011;23130;48.760;9.178;2023-05-29T07:47:16;7.82;;;4.38;;
37239;SDS011;23130;48.760;9.178;2023-05-29T07:49:42;9.00;;;5.05;;
37239;SDS011;23130;48.760;9.178;2023-05-29T07:52:07;5.50;;;4.30;;
37239;SDS011;23130;48.760;9.178;2023-05-29T07:54:33;8.50;;;4.45;;
37239;SDS011;23130;48.760;9.178;2023-05-29T07:56:59;7.68;;;4.53;;
37239;SDS011;23130;48.760;9.178;2023-05-29T07:59:25;7.03;;;4.85;;
37239;SDS011;23130;48.760;9.178;2023-05-29T08:01:52;5.45;;;3.63;;
37239;SDS011;23130;48.760;9.178;2023-05-29T08:04:18;7.68;;;4.18;;
37239;SDS011;23130;48.760;9.178;2023-05-29T08:06:43;4.95;;;3.88;;
37239;SDS011;23130;48.760;9.178;2023-05-29T08:09:09;6.15;;;4.40;;
37239;SDS011;23130;48.760;9.178;2023-05-29T08:11:38;8.30;;;4.15;;
37239;SDS011;23130;48.760;9.178;2023-05-29T08:14:03;6.57;;;4.68;;
37239;SDS011;23130;48.760;9.178;2023-05-29T08:16:29;8.20;;;4.85;;
37239;SDS011;23130;48.760;9.178;2023-05-29T08:18:54;8.00;;;4.35;;
37239;SDS011;23130;48.760;9.178;2023-05-29T08:21:21;7.07;;;4.45;;
37239;SDS011;23130;48.760;9.178;2023-05-29T08:23:46;6.53;;;4.13;;
37239;SDS011;23130;48.760;9.178;2023-05-29T08:26:12;5.97;;;4.18;;
37239;SDS011;23130;48.760;9.178;2023-05-29T08:28:38;8.00;;;4.88;;
37239;SDS011;23130;48.760;9.178;2023-05-29T08:31:04;7.45;;;4.28;;
37239;SDS011;23130;48.760;9.178;2023-05-29T08:33:30;6.88;;;4.60;;
37239;SDS011;23130;48.760;9.178;2023-05-29T08:35:57;5.85;;;4.53;;
37239;SDS011;23130;48.760;9.178;2023-05-29T08:38:23;8.43;;;5.10;;
37239;SDS011;23130;48.760;9.178;2023-05-29T08:40:50;10.50;;;4.50;;
37239;SDS011;23130;48.760;9.178;2023-05-29T08:43:22;8.00;;;4.43;;
37239;SDS011;23130;48.760;9.178;2023-05-29T08:45:54;10.05;;;4.65;;
37239;SDS011;23130;48.760;9.178;2023-05-29T08:48:24;9.32;;;4.38;;
37239;SDS011;23130;48.760;9.178;2023-05-29T08:50:50;9.15;;;5.03;;
37239;SDS011;23130;48.760;9.178;2023-05-29T08:53:18;7.70;;;4.55;;
37239;SDS011;23130;48.760;9.178;2023-05-29T08:55:44;6.50;;;4.75;;
37239;SDS011;23130;48.760;9.178;2023-05-29T08:58:12;8.93;;;4.93;;
37239;SDS011;23130;48.760;9.178;2023-05-29T09:00:39;9.20;;;4.93;;
37239;SDS011;23130;48.760;9.178;2023-05-29T09:03:05;6.60;;;4.30;;
37239;SDS011;23130;48.760;9.178;2023-05-29T09:05:32;9.73;;;4.70;;
37239;SDS011;23130;48.760;9.178;2023-05-29T09:07:57;8.85;;;4.70;;
37239;SDS011;23130;48.760;9.178;2023-05-29T09:10:23;6.47;;;4.55;;
37239;SDS011;23130;48.760;9.178;2023-05-29T09:12:51;10.10;;;4.60;;
37239;SDS011;23130;48.760;9.178;2023-05-29T09:15:20;8.77;;;4.50;;
37239;SDS011;23130;48.760;9.178;2023-05-29T09:17:51;7.50;;;4.15;;
37239;SDS011;23130;48.760;9.178;2023-05-29T09:20:18;7.90;;;4.70;;
37239;SDS011;23130;48.760;9.178;2023-05-29T09:22:58;8.82;;;4.40;;
37239;SDS011;23130;48.760;9.178;2023-05-29T09:25:29;11.23;;;4.68;;
37239;SDS011;23130;48.760;9.178;2023-05-29T09:30:40;6.47;;;4.10;;
37239;SDS011;23130;48.760;9.178;2023-05-29T09:33:11;7.45;;;4.20;;
37239;SDS011;23130;48.760;9.178;2023-05-29T09:35:38;6.82;;;3.88;;
37239;SDS011;23130;48.760;9.178;2023-05-29T09:38:07;7.57;;;4.68;;
37239;SDS011;23130;48.760;9.178;2023-05-29T09:40:35;6.70;;;4.20;;
37239;SDS011;23130;48.760;9.178;2023-05-29T09:45:42;8.68;;;4.43;;
37239;SDS011;23130;48.760;9.178;2023-05-29T09:48:13;6.07;;;4.32;;
37239;SDS011;23130;48.760;9.178;2023-05-29T09:50:40;6.93;;;4.05;;
37239;SDS011;23130;48.760;9.178;2023-05-29T09:53:19;9.85;;;4.25;;
37239;SDS011;23130;48.760;9.178;2023-05-29T09:55:46;8.52;;;4.40;;
37239;SDS011;23130;48.760;9.178;2023-05-29T09:58:14;6.63;;;4.25;;
37239;SDS011;23130;48.760;9.178;2023-05-29T10:00:41;9.73;;;4.30;;
37239;SDS011;23130;48.760;9.178;2023-05-29T10:03:08;9.02;;;4.65;;
37239;SDS011;23130;48.760;9.178;2023-05-29T10:05:34;6.47;;;3.90;;
37239;SDS011;23130;48.760;9.178;2023-05-29T10:08:00;8.02;;;4.63;;
37239;SDS011;23130;48.760;9.178;2023-05-29T10:10:28;7.72;;;4.22;;
37239;SDS011;23130;48.760;9.178;2023-05-29T10:12:54;6.35;;;4.22;;
37239;SDS011;23130;48.760;9.178;2023-05-29T10:15:22;7.22;;;3.80;;
37239;SDS011;23130;48.760;9.178;2023-05-29T10:17:49;6.88;;;3.85;;
37239;SDS011;23130;48.760;9.178;2023-05-29T10:20:17;8.32;;;4.63;;
37239;SDS011;23130;48.760;9.178;2023-05-29T10:22:45;6.35;;;4.05;;
37239;SDS011;23130;48.760;9.178;2023-05-29T10:25:13;8.77;;;4.00;;
37239;SDS011;23130;48.760;9.178;2023-05-29T10:27:42;7.07;;;3.72;;
37239;SDS011;23130;48.760;9.178;2023-05-29T10:35:40;9.05;;;4.38;;
37239;SDS011;23130;48.760;9.178;2023-05-29T10:38:12;7.13;;;3.75;;
37239;SDS011;23130;48.760;9.178;2023-05-29T10:40:41;8.15;;;3.72;;
37239;SDS011;23130;48.760;9.178;2023-05-29T10:43:07;7.38;;;3.50;;
37239;SDS011;23130;48.760;9.178;2023-05-29T10:53:03;5.57;;;3.50;;
37239;SDS011;23130;48.760;9.178;2023-05-29T10:55:34;5.93;;;3.10;;
37239;SDS011;23130;48.760;9.178;2023-05-29T10:58:04;7.45;;;3.83;;
37239;SDS011;23130;48.760;9.178;2023-05-29T11:00:30;5.88;;;3.00;;
37239;SDS011;23130;48.760;9.178;2023-05-29T11:02:56;10.98;;;4.22;;
37239;SDS011;23130;48.760;9.178;2023-05-29T11:05:26;7.47;;;3.90;;
37239;SDS011;23130;48.760;9.178;2023-05-29T11:07:56;7.13;;;3.80;;
37239;SDS011;23130;48.760;9.178;2023-05-29T11:13:11;7.60;;;3.75;;
37239;SDS011;23130;48.760;9.178;2023-05-29T11:16:03;4.72;;;3.30;;
37239;SDS011;23130;48.760;9.178;2023-05-29T11:18:42;8.73;;;3.95;;
37239;SDS011;23130;48.760;9.178;2023-05-29T11:21:13;4.65;;;3.08;;
37239;SDS011;23130;48.760;9.178;2023-05-29T11:24:00;7.63;;;3.35;;
37239;SDS011;23130;48.760;9.178;2023-05-29T11:26:31;6.75;;;4.03;;
37239;SDS011;23130;48.760;9.178;2023-05-29T11:28:58;7.50;;;3.53;;
37239;SDS011;23130;48.760;9.178;2023-05-29T11:31:37;4.78;;;3.17;;
37239;SDS011;23130;48.760;9.178;2023-05-29T11:34:05;7.82;;;4.18;;
37239;SDS011;23130;48.760;9.178;2023-05-29T11:36:37;8.52;;;4.20;;
37239;SDS011;23130;48.760;9.178;2023-05-29T11:39:03;6.30;;;3.28;;
37239;SDS011;23130;48.760;9.178;2023-05-29T11:41:29;8.50;;;3.60;;
37239;SDS011;23130;48.760;9.178;2023-05-29T11:44:01;5.88;;;3.40;;
37239;SDS011;23130;48.760;9.178;2023-05-29T11:46:28;7.28;;;3.15;;
37239;SDS011;23130;48.760;9.178;2023-05-29T11:48:57;7.03;;;3.58;;
37239;SDS011;23130;48.760;9.178;2023-05-29T11:51:23;6.50;;;3.33;;
37239;SDS011;23130;48.760;9.178;2023-05-29T11:53:49;6.80;;;3.53;;
37239;SDS011;23130;48.760;9.178;2023-05-29T11:56:17;7.80;;;3.00;;
37239;SDS011;23130;48.760;9.178;2023-05-29T11:58:47;6.75;;;3.65;;
37239;SDS011;23130;48.760;9.178;2023-05-29T12:01:13;8.10;;;3.55;;
37239;SDS011;23130;48.760;9.178;2023-05-29T12:03:44;5.15;;;2.55;;
37239;SDS011;23130;48.760;9.178;2023-05-29T12:06:10;7.45;;;3.22;;
37239;SDS011;23130;48.760;9.178;2023-05-29T12:08:36;7.13;;;3.53;;
37239;SDS011;23130;48.760;9.178;2023-05-29T12:11:02;4.32;;;3.25;;
37239;SDS011;23130;48.760;9.178;2023-05-29T12:13:28;5.05;;;3.10;;
37239;SDS011;23130;48.760;9.178;2023-05-29T12:15:56;8.07;;;3.22;;
37239;SDS011;23130;48.760;9.178;2023-05-29T12:18:25;5.80;;;3.15;;
37239;SDS011;23130;48.760;9.178;2023-05-29T12:20:56;4.60;;;2.92;;
37239;SDS011;23130;48.760;9.178;2023-05-29T12:23:23;5.32;;;3.00;;
37239;SDS011;23130;48.760;9.178;2023-05-29T12:25:50;5.47;;;3.05;;
37239;SDS011;23130;48.760;9.178;2023-05-29T12:28:17;5.30;;;3.03;;
37239;SDS011;23130;48.760;9.178;2023-05-29T12:30:44;5.75;;;2.97;;
37239;SDS011;23130;48.760;9.178;2023-05-29T12:36:01;4.63;;;2.53;;
37239;SDS011;23130;48.760;9.178;2023-05-29T12:38:31;7.60;;;3.03;;
37239;SDS011;23130;48.760;9.178;2023-05-29T12:40:57;4.50;;;3.10;;
37239;SDS011;23130;48.760;9.178;2023-05-29T12:43:22;7.53;;;3.03;;
37239;SDS011;23130;48.760;9.178;2023-05-29T12:45:53;5.43;;;3.15;;
37239;SDS011;23130;48.760;9.178;2023-05-29T12:48:20;5.63;;;2.78;;
37239;SDS011;23130;48.760;9.178;2023-05-29T12:50:51;7.63;;;2.50;;
37239;SDS011;23130;48.760;9.178;2023-05-29T12:53:16;5.25;;;3.00;;
37239;SDS011;23130;48.760;9.178;2023-05-29T12:55:42;5.90;;;2.95;;
37239;SDS011;23130;48.760;9.178;2023-05-29T12:58:09;9.23;;;3.45;;
37239;SDS011;23130;48.760;9.178;2023-05-29T13:00:41;4.43;;;2.70;;
37239;SDS011;23130;48.760;9.178;2023-05-29T13:03:08;5.18;;;2.92;;
37239;SDS011;23130;48.760;9.178;2023-05-29T13:05:35;5.30;;;3.35;;
37239;SDS011;23130;48.760;9.178;2023-05-29T13:08:01;4.60;;;2.95;;
37239;SDS011;23130;48.760;9.178;2023-05-29T13:10:30;4.15;;;3.00;;
37239;SDS011;23130;48.760;9.178;2023-05-29T13:12:55;5.05;;;2.67;;
37239;SDS011;23130;48.760;9.178;2023-05-29T13:15:24;5.55;;;3.33;;
37239;SDS011;23130;48.760;9.178;2023-05-29T13:17:51;5.85;;;3.50;;
37239;SDS011;23130;48.760;9.178;2023-05-29T13:20:17;7.10;;;3.03;;
37239;SDS011;23130;48.760;9.178;2023-05-29T13:22:44;5.55;;;3.70;;
37239;SDS011;23130;48.760;9.178;2023-05-29T13:25:12;5.40;;;3.10;;
37239;SDS011;23130;48.760;9.178;2023-05-29T13:27:42;12.18;;;3.85;;
37239;SDS011;23130;48.760;9.178;2023-05-29T13:30:09;4.80;;;3.00;;
37239;SDS011;23130;48.760;9.178;2023-05-29T13:32:36;4.72;;;3.65;;
37239;SDS011;23130;48.760;9.178;2023-05-29T13:35:02;5.38;;;2.85;;
37239;SDS011;23130;48.760;9.178;2023-05-29T13:37:28;5.05;;;2.80;;
37239;SDS011;23130;48.760;9.178;2023-05-29T13:39:53;4.57;;;3.33;;
37239;SDS011;23130;48.760;9.178;2023-05-29T13:42:19;4.97;;;2.88;;
37239;SDS011;23130;48.760;9.178;2023-05-29T13:44:46;5.15;;;3.25;;
37239;SDS011;23130;48.760;9.178;2023-05-29T13:47:12;4.25;;;2.80;;
37239;SDS011;23130;48.760;9.178;2023-05-29T13:49:38;4.90;;;2.85;;
37239;SDS011;23130;48.760;9.178;2023-05-29T13:52:04;3.92;;;2.92;;
37239;SDS011;23130;48.760;9.178;2023-05-29T13:54:30;5.18;;;3.47;;
37239;SDS011;23130;48.760;9.178;2023-05-29T13:57:00;5.22;;;2.95;;
37239;SDS011;23130;48.760;9.178;2023-05-29T13:59:33;4.80;;;3.30;;
37239;SDS011;23130;48.760;9.178;2023-05-29T14:01:59;4.72;;;3.10;;
37239;SDS011;23130;48.760;9.178;2023-05-29T14:04:25;6.53;;;3.25;;
37239;SDS011;23130;48.760;9.178;2023-05-29T14:06:51;7.70;;;2.80;;
37239;SDS011;23130;48.760;9.178;2023-05-29T14:09:17;5.45;;;2.85;;
37239;SDS011;23130;48.760;9.178;2023-05-29T14:11:51;4.95;;;2.55;;
37239;SDS011;23130;48.760;9.178;2023-05-29T14:14:17;5.32;;;3.10;;
37239;SDS011;23130;48.760;9.178;2023-05-29T14:16:43;4.97;;;2.60;;
37239;SDS011;23130;48.760;9.178;2023-05-29T14:19:08;3.78;;;2.70;;
37239;SDS011;23130;48.760;9.178;2023-05-29T14:21:34;5.15;;;3.03;;
37239;SDS011;23130;48.760;9.178;2023-05-29T14:24:00;5.18;;;3.03;;
37239;SDS011;23130;48.760;9.178;2023-05-29T14:26:26;5.72;;;3.08;;
37239;SDS011;23130;48.760;9.178;2023-05-29T14:28:52;6.95;;;2.90;;
37239;SDS011;23130;48.760;9.178;2023-05-29T14:31:17;4.63;;;2.70;;
37239;SDS011;23130;48.760;9.178;2023-05-29T14:33:43;4.55;;;2.67;;
37239;SDS011;23130;48.760;9.178;2023-05-29T14:36:08;7.28;;;2.88;;
37239;SDS011;23130;48.760;9.178;2023-05-29T14:38:34;4.40;;;2.90;;
37239;SDS011;23130;48.760;9.178;2023-05-29T14:41:01;5.72;;;2.75;;
37239;SDS011;23130;48.760;9.178;2023-05-29T14:43:27;4.90;;;3.35;;
37239;SDS011;23130;48.760;9.178;2023-05-29T14:45:52;4.97;;;3.42;;
37239;SDS011;23130;48.760;9.178;2023-05-29T14:48:18;6.10;;;3.22;;
37239;SDS011;23130;48.760;9.178;2023-05-29T14:50:43;5.75;;;3.42;;
37239;SDS011;23130;48.760;9.178;2023-05-29T14:53:09;4.60;;;2.97;;
37239;SDS011;23130;48.760;9.178;2023-05-29T14:55:34;4.70;;;3.70;;
37239;SDS011;23130;48.760;9.178;2023-05-29T14:58:03;7.75;;;2.70;;
37239;SDS011;23130;48.760;9.178;2023-05-29T15:00:29;5.25;;;3.22;;
37239;SDS011;23130;48.760;9.178;2023-05-29T15:02:56;4.57;;;3.20;;
37239;SDS011;23130;48.760;9.178;2023-05-29T15:05:24;5.03;;;3.05;;
37239;SDS011;23130;48.760;9.178;2023-05-29T15:07:53;4.70;;;2.92;;
37239;SDS011;23130;48.760;9.178;2023-05-29T15:10:24;4.32;;;2.95;;
37239;SDS011;23130;48.760;9.178;2023-05-29T15:12:53;4.28;;;3.25;;
37239;SDS011;23130;48.760;9.178;2023-05-29T15:15:22;5.63;;;3.03;;
37239;SDS011;23130;48.760;9.178;2023-05-29T15:17:52;4.28;;;2.70;;
37239;SDS011;23130;48.760;9.178;2023-05-29T15:20:21;5.10;;;3.00;;
37239;SDS011;23130;48.760;9.178;2023-05-29T15:22:47;5.20;;;3.22;;